Santo Antonio do Sudoeste, Brazil
Current Conditions -  °F | °C
As of 7:00 AM on Monday 20 Oct 2014 (Local Time) from SARI Reporting Station
Broken Clouds Broken Clouds  
Wind Chill: 66°   Ceiling: 10000
Heat Index: 66°   Visibility: 6mi
Dew Point: 66°   Wind: 6mph
Humidity: 100%   Direction: 180°S
Pressure: 30"   Gusts: NA
Location:  26.07°S, 53.73°W
Report Text: SARI 201000Z 18005KT 9999 FEW025 BKN10019/19 Q1016
Loading
Personal Weather Stations






























Interactive Weather Map
Tropical Storm Tracking
New forecast layout! Learn more

10-Day Weather Forecast

Advertisements
Track Severe Weather on mobile